Graniteville, Vermont
Current Conditions -  °F | °C
As of 11:51 PM on Friday 19 Dec 2014 (Local Time) from KMPV Reporting Station
Overcast Overcast  
Wind Chill: 17°   Ceiling: 1400
Heat Index: 17°   Visibility: 10mi
Dew Point: 13°   Wind: 0mph
Humidity: 84%   Direction: NA
Pressure: 30.2"   Gusts: NA
Location:  44.15°N, 72.49°W
Report Text: KMPV 200451Z AUTO 00000KT 10SM OVC014 M08/M11 A3020 RMK AO2 SLP249 T10831106 410391083
Loading
Personal Weather Stations






























Interactive Weather Map New forecast layout! Learn more

10-Day Weather Forecast

Advertisements
Track Severe Weather on mobile